sensor_id;sensor_type;location;lat;lon;timestamp;pressure;altitude;pressure_sealevel;temperature;humidity
58223;BME280;44020;50.890;15.796;2022-12-29T00:01:03;97234.14;;;6.73;73.03
58223;BME280;44020;50.890;15.796;2022-12-29T00:03:30;97232.40;;;6.76;72.60
58223;BME280;44020;50.890;15.796;2022-12-29T00:05:58;97225.08;;;6.77;72.65
58223;BME280;44020;50.890;15.796;2022-12-29T00:08:25;97222.45;;;6.79;72.45
58223;BME280;44020;50.890;15.796;2022-12-29T00:11:14;97222.45;;;6.82;72.11
58223;BME280;44020;50.890;15.796;2022-12-29T00:13:41;97218.65;;;6.84;72.05
58223;BME280;44020;50.890;15.796;2022-12-29T00:16:28;97216.32;;;6.84;71.93
58223;BME280;44020;50.890;15.796;2022-12-29T00:18:57;97211.04;;;6.84;71.73
58223;BME280;44020;50.890;15.796;2022-12-29T00:21:25;97210.17;;;6.83;71.42
58223;BME280;44020;50.890;15.796;2022-12-29T00:24:20;97209.98;;;6.84;71.37
58223;BME280;44020;50.890;15.796;2022-12-29T00:29:49;97199.13;;;6.83;71.18
58223;BME280;44020;50.890;15.796;2022-12-29T00:32:36;97194.89;;;6.83;71.07
58223;BME280;44020;50.890;15.796;2022-12-29T00:35:38;97191.63;;;6.81;70.95
58223;BME280;44020;50.890;15.796;2022-12-29T00:38:07;97190.81;;;6.80;70.82
58223;BME280;44020;50.890;15.796;2022-12-29T00:40:54;97183.98;;;6.79;70.30
58223;BME280;44020;50.890;15.796;2022-12-29T00:43:41;97188.05;;;6.79;70.47
58223;BME280;44020;50.890;15.796;2022-12-29T00:46:27;97196.09;;;6.78;70.46
58223;BME280;44020;50.890;15.796;2022-12-29T00:48:54;97197.21;;;6.76;70.19
58223;BME280;44020;50.890;15.796;2022-12-29T00:51:40;97193.23;;;6.75;70.07
58223;BME280;44020;50.890;15.796;2022-12-29T00:54:07;97203.73;;;6.74;69.94
58223;BME280;44020;50.890;15.796;2022-12-29T00:56:35;97202.34;;;6.74;69.96
58223;BME280;44020;50.890;15.796;2022-12-29T00:59:07;97197.73;;;6.74;69.95
58223;BME280;44020;50.890;15.796;2022-12-29T01:01:35;97197.20;;;6.74;69.82
58223;BME280;44020;50.890;15.796;2022-12-29T01:04:05;97197.73;;;6.74;69.47
58223;BME280;44020;50.890;15.796;2022-12-29T01:06:33;97189.31;;;6.73;69.82
58223;BME280;44020;50.890;15.796;2022-12-29T01:09:01;97195.76;;;6.72;69.29
58223;BME280;44020;50.890;15.796;2022-12-29T01:11:46;97196.69;;;6.71;69.53
58223;BME280;44020;50.890;15.796;2022-12-29T01:14:15;97196.23;;;6.70;69.71
58223;BME280;44020;50.890;15.796;2022-12-29T01:16:42;97197.08;;;6.71;69.40
58223;BME280;44020;50.890;15.796;2022-12-29T01:19:09;97194.41;;;6.71;69.23
58223;BME280;44020;50.890;15.796;2022-12-29T01:21:37;97191.89;;;6.71;69.17
58223;BME280;44020;50.890;15.796;2022-12-29T01:24:05;97190.86;;;6.71;69.29
58223;BME280;44020;50.890;15.796;2022-12-29T01:26:33;97198.45;;;6.71;69.15
58223;BME280;44020;50.890;15.796;2022-12-29T01:29:00;97195.95;;;6.71;68.95
58223;BME280;44020;50.890;15.796;2022-12-29T01:31:28;97192.38;;;6.70;68.96
58223;BME280;44020;50.890;15.796;2022-12-29T01:33:55;97186.74;;;6.69;68.78
58223;BME280;44020;50.890;15.796;2022-12-29T01:36:24;97191.52;;;6.68;68.95
58223;BME280;44020;50.890;15.796;2022-12-29T01:38:52;97191.92;;;6.68;68.77
58223;BME280;44020;50.890;15.796;2022-12-29T01:41:19;97188.30;;;6.67;68.66
58223;BME280;44020;50.890;15.796;2022-12-29T01:43:50;97168.92;;;6.66;68.78
58223;BME280;44020;50.890;15.796;2022-12-29T01:46:41;97169.05;;;6.64;68.73
58223;BME280;44020;50.890;15.796;2022-12-29T01:49:14;97172.18;;;6.65;68.53
58223;BME280;44020;50.890;15.796;2022-12-29T01:51:45;97164.77;;;6.65;68.56
58223;BME280;44020;50.890;15.796;2022-12-29T01:54:22;97167.79;;;6.64;68.42
58223;BME280;44020;50.890;15.796;2022-12-29T01:56:54;97168.42;;;6.65;68.44
58223;BME280;44020;50.890;15.796;2022-12-29T01:59:27;97171.44;;;6.65;68.32
58223;BME280;44020;50.890;15.796;2022-12-29T02:01:59;97179.71;;;6.66;68.23
58223;BME280;44020;50.890;15.796;2022-12-29T02:04:31;97171.54;;;6.64;68.25
58223;BME280;44020;50.890;15.796;2022-12-29T02:07:11;97173.69;;;6.61;68.36
58223;BME280;44020;50.890;15.796;2022-12-29T02:09:42;97154.33;;;6.60;68.61
58223;BME280;44020;50.890;15.796;2022-12-29T02:12:10;97154.61;;;6.61;68.64
58223;BME280;44020;50.890;15.796;2022-12-29T02:14:38;97145.45;;;6.60;68.37
58223;BME280;44020;50.890;15.796;2022-12-29T02:22:22;97144.45;;;6.57;68.23
58223;BME280;44020;50.890;15.796;2022-12-29T02:25:06;97138.74;;;6.57;68.30
58223;BME280;44020;50.890;15.796;2022-12-29T02:33:20;97138.27;;;6.65;68.40
58223;BME280;44020;50.890;15.796;2022-12-29T02:36:39;97135.38;;;6.69;67.86
58223;BME280;44020;50.890;15.796;2022-12-29T02:39:04;97128.75;;;6.73;67.66
58223;BME280;44020;50.890;15.796;2022-12-29T02:47:15;97121.27;;;6.82;67.60
58223;BME280;44020;50.890;15.796;2022-12-29T02:49:59;97116.48;;;6.85;67.29
58223;BME280;44020;50.890;15.796;2022-12-29T02:52:35;97115.44;;;6.87;67.40
58223;BME280;44020;50.890;15.796;2022-12-29T02:55:05;97113.89;;;6.90;67.27
58223;BME280;44020;50.890;15.796;2022-12-29T02:57:34;97121.17;;;6.93;67.05
58223;BME280;44020;50.890;15.796;2022-12-29T03:00:13;97113.30;;;6.94;66.83
58223;BME280;44020;50.890;15.796;2022-12-29T03:03:06;97112.77;;;6.96;66.78
58223;BME280;44020;50.890;15.796;2022-12-29T03:09:10;97114.48;;;7.00;66.42
58223;BME280;44020;50.890;15.796;2022-12-29T03:11:30;97119.21;;;7.01;66.65
58223;BME280;44020;50.890;15.796;2022-12-29T03:17:32;97118.08;;;7.04;66.87
58223;BME280;44020;50.890;15.796;2022-12-29T03:20:08;97120.59;;;7.06;66.66
58223;BME280;44020;50.890;15.796;2022-12-29T03:22:40;97124.36;;;7.08;66.53
58223;BME280;44020;50.890;15.796;2022-12-29T03:25:16;97124.70;;;7.08;66.65
58223;BME280;44020;50.890;15.796;2022-12-29T03:27:56;97130.82;;;7.09;66.83
58223;BME280;44020;50.890;15.796;2022-12-29T03:30:27;97129.91;;;7.10;66.88
58223;BME280;44020;50.890;15.796;2022-12-29T03:33:00;97131.30;;;7.10;66.54
58223;BME280;44020;50.890;15.796;2022-12-29T03:35:32;97127.90;;;7.11;66.54
58223;BME280;44020;50.890;15.796;2022-12-29T03:38:37;97120.33;;;7.11;66.79
58223;BME280;44020;50.890;15.796;2022-12-29T03:40:59;97126.30;;;7.08;66.69
58223;BME280;44020;50.890;15.796;2022-12-29T03:43:28;97119.14;;;7.07;66.86
58223;BME280;44020;50.890;15.796;2022-12-29T03:45:56;97122.61;;;7.05;66.99
58223;BME280;44020;50.890;15.796;2022-12-29T03:48:23;97117.98;;;7.03;67.13
58223;BME280;44020;50.890;15.796;2022-12-29T03:50:51;97117.94;;;7.01;67.29
58223;BME280;44020;50.890;15.796;2022-12-29T03:53:18;97114.53;;;6.99;67.51
58223;BME280;44020;50.890;15.796;2022-12-29T03:55:45;97109.12;;;6.96;67.58
58223;BME280;44020;50.890;15.796;2022-12-29T03:58:13;97103.82;;;6.93;67.80
58223;BME280;44020;50.890;15.796;2022-12-29T04:00:40;97093.42;;;6.90;67.97
58223;BME280;44020;50.890;15.796;2022-12-29T04:03:07;97086.58;;;6.86;68.42
58223;BME280;44020;50.890;15.796;2022-12-29T04:05:35;97084.04;;;6.85;68.53
58223;BME280;44020;50.890;15.796;2022-12-29T04:08:02;97077.83;;;6.83;68.98
58223;BME280;44020;50.890;15.796;2022-12-29T04:10:29;97067.52;;;6.81;69.16
58223;BME280;44020;50.890;15.796;2022-12-29T04:12:57;97061.52;;;6.78;69.50
58223;BME280;44020;50.890;15.796;2022-12-29T04:15:24;97056.52;;;6.76;69.55
58223;BME280;44020;50.890;15.796;2022-12-29T04:17:53;97038.94;;;6.75;69.65
58223;BME280;44020;50.890;15.796;2022-12-29T04:20:21;97035.39;;;6.75;69.58
58223;BME280;44020;50.890;15.796;2022-12-29T04:23:06;97041.58;;;6.75;69.44
58223;BME280;44020;50.890;15.796;2022-12-29T04:25:34;97048.39;;;6.77;69.59
58223;BME280;44020;50.890;15.796;2022-12-29T04:28:02;97054.39;;;6.77;69.77
58223;BME280;44020;50.890;15.796;2022-12-29T04:30:29;97052.62;;;6.76;69.67
58223;BME280;44020;50.890;15.796;2022-12-29T04:32:56;97052.66;;;6.76;69.69
58223;BME280;44020;50.890;15.796;2022-12-29T04:35:24;97056.86;;;6.76;69.66
58223;BME280;44020;50.890;15.796;2022-12-29T04:37:51;97049.35;;;6.78;69.63
58223;BME280;44020;50.890;15.796;2022-12-29T04:40:18;97046.81;;;6.79;69.52
58223;BME280;44020;50.890;15.796;2022-12-29T04:42:45;97034.97;;;6.79;69.47
58223;BME280;44020;50.890;15.796;2022-12-29T04:45:13;97035.39;;;6.81;69.53
58223;BME280;44020;50.890;15.796;2022-12-29T04:47:40;97035.74;;;6.81;69.25
58223;BME280;44020;50.890;15.796;2022-12-29T04:50:08;97034.58;;;6.82;69.42
58223;BME280;44020;50.890;15.796;2022-12-29T04:52:35;97037.23;;;6.83;69.41
58223;BME280;44020;50.890;15.796;2022-12-29T04:55:04;97035.20;;;6.84;69.24
58223;BME280;44020;50.890;15.796;2022-12-29T04:57:31;97036.13;;;6.86;69.13
58223;BME280;44020;50.890;15.796;2022-12-29T04:59:59;97036.23;;;6.86;69.00
58223;BME280;44020;50.890;15.796;2022-12-29T05:02:26;97030.26;;;6.86;69.31
58223;BME280;44020;50.890;15.796;2022-12-29T05:04:53;97023.55;;;6.86;69.32
58223;BME280;44020;50.890;15.796;2022-12-29T05:07:21;97020.60;;;6.85;69.05
58223;BME280;44020;50.890;15.796;2022-12-29T05:09:48;97020.63;;;6.85;68.99
58223;BME280;44020;50.890;15.796;2022-12-29T05:12:15;97030.90;;;6.85;68.86
58223;BME280;44020;50.890;15.796;2022-12-29T05:14:43;97033.67;;;6.85;68.92
58223;BME280;44020;50.890;15.796;2022-12-29T05:17:10;97038.67;;;6.85;68.94
58223;BME280;44020;50.890;15.796;2022-12-29T05:19:38;97037.61;;;6.84;68.75
58223;BME280;44020;50.890;15.796;2022-12-29T05:22:05;97039.22;;;6.84;68.72
58223;BME280;44020;50.890;15.796;2022-12-29T05:24:32;97043.09;;;6.84;68.50
58223;BME280;44020;50.890;15.796;2022-12-29T05:26:59;97044.98;;;6.85;68.58
58223;BME280;44020;50.890;15.796;2022-12-29T05:29:27;97035.38;;;6.86;68.63
58223;BME280;44020;50.890;15.796;2022-12-29T05:31:54;97037.10;;;6.87;68.46
58223;BME280;44020;50.890;15.796;2022-12-29T05:34:21;97044.30;;;6.87;68.19
58223;BME280;44020;50.890;15.796;2022-12-29T05:36:49;97041.08;;;6.88;68.43
58223;BME280;44020;50.890;15.796;2022-12-29T05:39:16;97043.32;;;6.89;68.29
58223;BME280;44020;50.890;15.796;2022-12-29T05:41:44;97041.60;;;6.91;68.20
58223;BME280;44020;50.890;15.796;2022-12-29T05:44:12;97042.98;;;6.92;68.18
58223;BME280;44020;50.890;15.796;2022-12-29T05:46:39;97043.66;;;6.95;68.08
58223;BME280;44020;50.890;15.796;2022-12-29T05:49:10;97045.23;;;6.98;67.63
58223;BME280;44020;50.890;15.796;2022-12-29T05:51:37;97042.41;;;7.00;67.66
58223;BME280;44020;50.890;15.796;2022-12-29T05:54:04;97038.10;;;7.01;67.64
58223;BME280;44020;50.890;15.796;2022-12-29T05:56:32;97034.48;;;7.03;67.80
58223;BME280;44020;50.890;15.796;2022-12-29T05:58:59;97033.74;;;7.03;68.09
58223;BME280;44020;50.890;15.796;2022-12-29T06:01:27;97034.91;;;7.04;67.63
58223;BME280;44020;50.890;15.796;2022-12-29T06:03:54;97033.30;;;7.05;67.78
58223;BME280;44020;50.890;15.796;2022-12-29T06:06:21;97041.86;;;7.06;67.58
58223;BME280;44020;50.890;15.796;2022-12-29T06:08:49;97040.30;;;7.05;67.80
58223;BME280;44020;50.890;15.796;2022-12-29T06:11:16;97034.42;;;7.06;67.77
58223;BME280;44020;50.890;15.796;2022-12-29T06:13:43;97030.60;;;7.08;67.78
58223;BME280;44020;50.890;15.796;2022-12-29T06:16:11;97031.23;;;7.09;67.55
58223;BME280;44020;50.890;15.796;2022-12-29T06:18:39;97033.16;;;7.09;67.73
58223;BME280;44020;50.890;15.796;2022-12-29T06:21:06;97035.35;;;7.11;68.00
58223;BME280;44020;50.890;15.796;2022-12-29T06:23:33;97025.17;;;7.13;68.03
58223;BME280;44020;50.890;15.796;2022-12-29T06:26:01;97021.70;;;7.14;67.92
58223;BME280;44020;50.890;15.796;2022-12-29T06:28:28;97011.96;;;7.17;67.83
58223;BME280;44020;50.890;15.796;2022-12-29T06:30:55;97016.60;;;7.19;67.86
58223;BME280;44020;50.890;15.796;2022-12-29T06:33:24;97014.04;;;7.20;68.07
58223;BME280;44020;50.890;15.796;2022-12-29T06:35:52;97025.31;;;7.23;68.02
58223;BME280;44020;50.890;15.796;2022-12-29T06:38:19;97028.70;;;7.25;68.14
58223;BME280;44020;50.890;15.796;2022-12-29T06:40:46;97043.13;;;7.27;67.83
58223;BME280;44020;50.890;15.796;2022-12-29T06:43:14;97053.75;;;7.26;68.21
58223;BME280;44020;50.890;15.796;2022-12-29T06:45:41;97047.09;;;7.25;68.24
58223;BME280;44020;50.890;15.796;2022-12-29T06:48:09;97050.04;;;7.23;68.58
58223;BME280;44020;50.890;15.796;2022-12-29T06:50:37;97045.77;;;7.21;68.38
58223;BME280;44020;50.890;15.796;2022-12-29T06:53:06;97054.19;;;7.20;68.59
58223;BME280;44020;50.890;15.796;2022-12-29T06:55:33;97061.05;;;7.18;68.93
58223;BME280;44020;50.890;15.796;2022-12-29T06:58:00;97049.16;;;7.16;69.10
58223;BME280;44020;50.890;15.796;2022-12-29T07:00:28;97047.41;;;7.13;69.23
58223;BME280;44020;50.890;15.796;2022-12-29T07:02:55;97048.02;;;7.11;69.47
58223;BME280;44020;50.890;15.796;2022-12-29T07:05:25;97053.09;;;7.10;69.62
58223;BME280;44020;50.890;15.796;2022-12-29T07:07:58;97059.50;;;7.06;69.86
58223;BME280;44020;50.890;15.796;2022-12-29T07:10:27;97057.64;;;7.05;69.76
58223;BME280;44020;50.890;15.796;2022-12-29T07:12:54;97044.16;;;7.03;70.12
58223;BME280;44020;50.890;15.796;2022-12-29T07:15:22;97039.74;;;7.03;70.67
58223;BME280;44020;50.890;15.796;2022-12-29T07:17:49;97029.23;;;7.04;71.15
58223;BME280;44020;50.890;15.796;2022-12-29T07:20:16;97012.37;;;7.06;71.32
58223;BME280;44020;50.890;15.796;2022-12-29T07:22:43;97006.20;;;7.08;71.66
58223;BME280;44020;50.890;15.796;2022-12-29T07:25:11;97000.55;;;7.11;71.80
58223;BME280;44020;50.890;15.796;2022-12-29T07:27:38;97003.70;;;7.14;71.52
58223;BME280;44020;50.890;15.796;2022-12-29T07:30:05;97014.08;;;7.17;71.44
58223;BME280;44020;50.890;15.796;2022-12-29T07:32:33;97015.04;;;7.19;71.27
58223;BME280;44020;50.890;15.796;2022-12-29T07:35:01;97009.91;;;7.21;70.93
58223;BME280;44020;50.890;15.796;2022-12-29T07:37:28;97007.73;;;7.24;70.75
58223;BME280;44020;50.890;15.796;2022-12-29T07:39:56;97010.95;;;7.27;70.77
58223;BME280;44020;50.890;15.796;2022-12-29T07:42:23;97003.73;;;7.29;70.61
58223;BME280;44020;50.890;15.796;2022-12-29T07:44:50;96998.78;;;7.32;70.45
58223;BME280;44020;50.890;15.796;2022-12-29T07:47:17;97003.55;;;7.34;70.35
58223;BME280;44020;50.890;15.796;2022-12-29T07:49:45;97001.84;;;7.39;69.92
58223;BME280;44020;50.890;15.796;2022-12-29T07:52:12;97001.38;;;7.43;70.03
58223;BME280;44020;50.890;15.796;2022-12-29T07:54:40;97004.06;;;7.47;69.61
58223;BME280;44020;50.890;15.796;2022-12-29T07:57:07;97000.41;;;7.49;69.94
58223;BME280;44020;50.890;15.796;2022-12-29T07:59:34;96999.02;;;7.54;69.48
58223;BME280;44020;50.890;15.796;2022-12-29T08:02:02;97005.78;;;7.56;69.37
58223;BME280;44020;50.890;15.796;2022-12-29T08:04:29;97004.27;;;7.57;69.30
58223;BME280;44020;50.890;15.796;2022-12-29T08:06:56;96998.73;;;7.58;69.63
58223;BME280;44020;50.890;15.796;2022-12-29T08:09:24;97009.01;;;7.60;69.74
58223;BME280;44020;50.890;15.796;2022-12-29T08:11:53;97001.58;;;7.63;69.42
58223;BME280;44020;50.890;15.796;2022-12-29T08:14:20;96986.03;;;7.65;69.22
58223;BME280;44020;50.890;15.796;2022-12-29T08:16:48;96983.55;;;7.65;69.51
58223;BME280;44020;50.890;15.796;2022-12-29T08:19:16;96991.64;;;7.66;69.53
58223;BME280;44020;50.890;15.796;2022-12-29T08:21:44;96992.92;;;7.68;69.47
58223;BME280;44020;50.890;15.796;2022-12-29T08:24:11;97003.89;;;7.70;69.46
58223;BME280;44020;50.890;15.796;2022-12-29T08:26:39;97021.18;;;7.70;69.55
58223;BME280;44020;50.890;15.796;2022-12-29T08:29:06;97026.23;;;7.72;69.56
58223;BME280;44020;50.890;15.796;2022-12-29T08:31:34;97031.49;;;7.75;69.44
58223;BME280;44020;50.890;15.796;2022-12-29T08:34:02;97034.70;;;7.78;69.56
58223;BME280;44020;50.890;15.796;2022-12-29T08:36:30;97041.98;;;7.79;69.31
58223;BME280;44020;50.890;15.796;2022-12-29T08:38:58;97039.58;;;7.81;69.28
58223;BME280;44020;50.890;15.796;2022-12-29T08:41:26;97046.73;;;7.82;69.14
58223;BME280;44020;50.890;15.796;2022-12-29T08:43:53;97057.61;;;7.83;69.22
58223;BME280;44020;50.890;15.796;2022-12-29T08:46:20;97071.00;;;7.84;69.14
58223;BME280;44020;50.890;15.796;2022-12-29T08:48:48;97079.85;;;7.87;68.97
58223;BME280;44020;50.890;15.796;2022-12-29T08:51:15;97083.38;;;7.84;68.89
58223;BME280;44020;50.890;15.796;2022-12-29T08:53:43;97078.48;;;7.83;69.26
58223;BME280;44020;50.890;15.796;2022-12-29T08:56:11;97072.52;;;7.85;69.25
58223;BME280;44020;50.890;15.796;2022-12-29T08:58:38;97058.90;;;7.85;69.30
58223;BME280;44020;50.890;15.796;2022-12-29T09:01:06;97048.39;;;7.86;69.40
58223;BME280;44020;50.890;15.796;2022-12-29T09:03:33;97052.47;;;7.89;69.27
58223;BME280;44020;50.890;15.796;2022-12-29T09:06:01;97040.73;;;7.90;69.36
58223;BME280;44020;50.890;15.796;2022-12-29T09:08:28;97053.02;;;7.91;69.63
58223;BME280;44020;50.890;15.796;2022-12-29T09:10:55;97055.10;;;7.94;69.53
58223;BME280;44020;50.890;15.796;2022-12-29T09:13:31;97066.92;;;7.97;69.64
58223;BME280;44020;50.890;15.796;2022-12-29T09:15:59;97064.04;;;8.00;69.60
58223;BME280;44020;50.890;15.796;2022-12-29T09:18:26;97066.87;;;8.05;69.48
58223;BME280;44020;50.890;15.796;2022-12-29T09:20:58;97063.60;;;8.09;69.48
58223;BME280;44020;50.890;15.796;2022-12-29T09:23:26;97057.44;;;8.14;69.31
58223;BME280;44020;50.890;15.796;2022-12-29T09:25:54;97052.45;;;8.17;68.92
58223;BME280;44020;50.890;15.796;2022-12-29T09:28:22;97050.36;;;8.21;68.36
58223;BME280;44020;50.890;15.796;2022-12-29T09:30:49;97052.38;;;8.23;68.48
58223;BME280;44020;50.890;15.796;2022-12-29T09:33:17;97055.49;;;8.26;68.44
58223;BME280;44020;50.890;15.796;2022-12-29T09:35:50;97057.92;;;8.29;68.08
58223;BME280;44020;50.890;15.796;2022-12-29T09:38:18;97055.75;;;8.32;67.97
58223;BME280;44020;50.890;15.796;2022-12-29T09:40:52;97050.32;;;8.37;67.95
58223;BME280;44020;50.890;15.796;2022-12-29T09:46:14;97051.47;;;8.43;67.84
58223;BME280;44020;50.890;15.796;2022-12-29T09:49:19;97052.16;;;8.46;67.78
58223;BME280;44020;50.890;15.796;2022-12-29T09:51:51;97056.36;;;8.51;67.52
58223;BME280;44020;50.890;15.796;2022-12-29T09:56:59;97057.61;;;8.56;67.06
58223;BME280;44020;50.890;15.796;2022-12-29T09:59:41;97051.84;;;8.58;66.95
58223;BME280;44020;50.890;15.796;2022-12-29T10:02:15;97037.75;;;8.59;66.66
58223;BME280;44020;50.890;15.796;2022-12-29T10:04:47;97038.08;;;8.60;66.86
58223;BME280;44020;50.890;15.796;2022-12-29T10:07:38;97033.76;;;8.60;66.72
58223;BME280;44020;50.890;15.796;2022-12-29T10:10:23;97032.21;;;8.62;66.66
58223;BME280;44020;50.890;15.796;2022-12-29T10:13:10;97024.79;;;8.65;66.59
58223;BME280;44020;50.890;15.796;2022-12-29T10:24:24;97025.91;;;8.73;66.22
58223;BME280;44020;50.890;15.796;2022-12-29T10:26:53;97022.42;;;8.75;66.30
58223;BME280;44020;50.890;15.796;2022-12-29T10:29:28;97017.63;;;8.78;66.26
58223;BME280;44020;50.890;15.796;2022-12-29T10:32:29;97012.52;;;8.79;66.15
58223;BME280;44020;50.890;15.796;2022-12-29T10:34:57;97009.89;;;8.81;66.08
58223;BME280;44020;50.890;15.796;2022-12-29T10:40:22;97008.83;;;8.86;66.16
58223;BME280;44020;50.890;15.796;2022-12-29T10:42:54;97002.96;;;8.89;65.83
58223;BME280;44020;50.890;15.796;2022-12-29T10:45:25;97002.09;;;8.91;65.43
58223;BME280;44020;50.890;15.796;2022-12-29T10:50:27;97000.13;;;8.96;65.46
58223;BME280;44020;50.890;15.796;2022-12-29T10:53:02;97006.52;;;8.99;65.45
58223;BME280;44020;50.890;15.796;2022-12-29T10:55:35;97006.94;;;9.02;65.33
58223;BME280;44020;50.890;15.796;2022-12-29T10:58:11;97004.46;;;9.07;65.39
58223;BME280;44020;50.890;15.796;2022-12-29T11:00:40;97000.52;;;9.12;65.38
58223;BME280;44020;50.890;15.796;2022-12-29T11:08:39;96990.77;;;9.26;64.92
58223;BME280;44020;50.890;15.796;2022-12-29T11:11:09;96993.65;;;9.28;65.00
58223;BME280;44020;50.890;15.796;2022-12-29T11:13:51;96990.77;;;9.31;64.81
58223;BME280;44020;50.890;15.796;2022-12-29T11:16:36;96982.89;;;9.36;64.89
58223;BME280;44020;50.890;15.796;2022-12-29T11:19:04;96977.41;;;9.43;65.08
58223;BME280;44020;50.890;15.796;2022-12-29T11:21:37;96981.55;;;9.49;64.97
58223;BME280;44020;50.890;15.796;2022-12-29T11:24:29;96979.21;;;9.54;64.57
58223;BME280;44020;50.890;15.796;2022-12-29T11:27:16;96978.48;;;9.59;64.45
58223;BME280;44020;50.890;15.796;2022-12-29T11:29:44;96985.02;;;9.61;64.65
58223;BME280;44020;50.890;15.796;2022-12-29T11:32:21;96985.54;;;9.64;64.16
58223;BME280;44020;50.890;15.796;2022-12-29T11:34:49;96991.20;;;9.66;64.33
58223;BME280;44020;50.890;15.796;2022-12-29T11:37:19;96982.46;;;9.69;64.35
58223;BME280;44020;50.890;15.796;2022-12-29T11:39:59;96977.90;;;9.73;64.26
58223;BME280;44020;50.890;15.796;2022-12-29T11:45:04;96971.48;;;9.83;64.39
58223;BME280;44020;50.890;15.796;2022-12-29T11:47:33;96975.10;;;9.87;64.23
58223;BME280;44020;50.890;15.796;2022-12-29T11:50:04;96971.52;;;9.89;64.25
58223;BME280;44020;50.890;15.796;2022-12-29T11:52:35;96960.62;;;9.92;64.18
58223;BME280;44020;50.890;15.796;2022-12-29T11:55:06;96963.97;;;9.94;64.31
58223;BME280;44020;50.890;15.796;2022-12-29T11:57:35;96961.09;;;9.95;64.25
58223;BME280;44020;50.890;15.796;2022-12-29T12:00:15;96968.28;;;9.96;64.12
58223;BME280;44020;50.890;15.796;2022-12-29T12:05:30;96961.51;;;9.99;64.10
58223;BME280;44020;50.890;15.796;2022-12-29T12:08:17;96959.31;;;10.00;64.02
58223;BME280;44020;50.890;15.796;2022-12-29T12:11:43;96949.81;;;10.00;63.99
58223;BME280;44020;50.890;15.796;2022-12-29T12:14:01;96956.01;;;9.98;63.90
58223;BME280;44020;50.890;15.796;2022-12-29T12:16:57;96958.08;;;9.97;64.18
58223;BME280;44020;50.890;15.796;2022-12-29T12:19:34;96955.83;;;9.97;64.18
58223;BME280;44020;50.890;15.796;2022-12-29T12:22:36;96946.73;;;9.95;64.40
58223;BME280;44020;50.890;15.796;2022-12-29T12:30:22;96948.95;;;9.89;64.36
58223;BME280;44020;50.890;15.796;2022-12-29T12:49:34;96939.94;;;9.77;64.46
58223;BME280;44020;50.890;15.796;2022-12-29T12:55:35;96941.94;;;9.73;64.54
58223;BME280;44020;50.890;15.796;2022-12-29T13:06:45;96941.61;;;9.72;64.74
58223;BME280;44020;50.890;15.796;2022-12-29T13:12:21;96928.97;;;9.75;64.47
58223;BME280;44020;50.890;15.796;2022-12-29T13:15:08;96926.95;;;9.76;64.61
58223;BME280;44020;50.890;15.796;2022-12-29T13:20:47;96925.27;;;9.79;64.57
58223;BME280;44020;50.890;15.796;2022-12-29T13:23:26;96933.00;;;9.78;64.53
58223;BME280;44020;50.890;15.796;2022-12-29T13:26:04;96937.32;;;9.79;64.28
58223;BME280;44020;50.890;15.796;2022-12-29T13:34:22;96950.33;;;9.78;64.25
58223;BME280;44020;50.890;15.796;2022-12-29T13:36:59;96952.94;;;9.79;64.07
58223;BME280;44020;50.890;15.796;2022-12-29T13:39:51;96946.16;;;9.80;64.02
58223;BME280;44020;50.890;15.796;2022-12-29T13:42:19;96947.98;;;9.81;64.00
58223;BME280;44020;50.890;15.796;2022-12-29T13:44:54;96952.33;;;9.80;64.00
58223;BME280;44020;50.890;15.796;2022-12-29T13:47:34;96961.18;;;9.80;63.90
58223;BME280;44020;50.890;15.796;2022-12-29T13:50:12;96956.22;;;9.80;63.71
58223;BME280;44020;50.890;15.796;2022-12-29T13:55:45;96960.45;;;9.78;63.91
58223;BME280;44020;50.890;15.796;2022-12-29T14:00:57;96958.69;;;9.78;63.84
58223;BME280;44020;50.890;15.796;2022-12-29T14:03:44;96965.90;;;9.77;64.11
58223;BME280;44020;50.890;15.796;2022-12-29T14:06:31;96973.34;;;9.77;64.10
58223;BME280;44020;50.890;15.796;2022-12-29T14:09:04;96974.29;;;9.76;64.15
58223;BME280;44020;50.890;15.796;2022-12-29T14:11:38;96977.23;;;9.75;64.15
58223;BME280;44020;50.890;15.796;2022-12-29T14:14:23;96977.80;;;9.74;64.29
58223;BME280;44020;50.890;15.796;2022-12-29T14:17:09;96977.55;;;9.73;64.23
58223;BME280;44020;50.890;15.796;2022-12-29T14:19:42;96978.02;;;9.72;64.34
58223;BME280;44020;50.890;15.796;2022-12-29T14:22:15;96972.41;;;9.71;64.41
58223;BME280;44020;50.890;15.796;2022-12-29T14:24:54;96976.70;;;9.70;64.40
58223;BME280;44020;50.890;15.796;2022-12-29T14:29:50;96978.98;;;9.70;64.51
58223;BME280;44020;50.890;15.796;2022-12-29T14:34:54;96980.73;;;9.69;64.59
58223;BME280;44020;50.890;15.796;2022-12-29T14:37:23;96975.84;;;9.68;64.54
58223;BME280;44020;50.890;15.796;2022-12-29T14:42:48;96993.17;;;9.66;64.69
58223;BME280;44020;50.890;15.796;2022-12-29T14:47:46;96992.79;;;9.64;64.78
58223;BME280;44020;50.890;15.796;2022-12-29T14:50:18;96992.33;;;9.63;64.75
58223;BME280;44020;50.890;15.796;2022-12-29T14:52:58;96992.98;;;9.62;64.98
58223;BME280;44020;50.890;15.796;2022-12-29T14:55:53;96999.46;;;9.60;64.79
58223;BME280;44020;50.890;15.796;2022-12-29T14:58:37;96993.14;;;9.57;64.90
58223;BME280;44020;50.890;15.796;2022-12-29T15:01:24;96991.81;;;9.56;64.99
58223;BME280;44020;50.890;15.796;2022-12-29T15:03:54;96990.70;;;9.55;65.17
58223;BME280;44020;50.890;15.796;2022-12-29T15:06:27;96989.29;;;9.52;65.27
58223;BME280;44020;50.890;15.796;2022-12-29T15:09:33;96988.69;;;9.51;65.25
58223;BME280;44020;50.890;15.796;2022-12-29T15:12:30;96980.68;;;9.49;65.41
58223;BME280;44020;50.890;15.796;2022-12-29T15:15:19;96975.29;;;9.48;65.40
58223;BME280;44020;50.890;15.796;2022-12-29T15:17:48;96978.64;;;9.46;65.56
58223;BME280;44020;50.890;15.796;2022-12-29T15:20:30;96982.88;;;9.46;65.61
58223;BME280;44020;50.890;15.796;2022-12-29T15:23:03;96978.54;;;9.45;65.62
58223;BME280;44020;50.890;15.796;2022-12-29T15:25:36;96990.93;;;9.43;65.78